Port Aransas, Texas
Current Conditions -  °F | °C
As of 3:35 PM on Wednesday 26 Nov 2014 (Local Time) from KRAS Reporting Station
Clear Clear  
Wind Chill: 67°   Ceiling: Unl
Heat Index: 67°   Visibility: 10mi
Dew Point: 49°   Wind: 8mph
Humidity: 52%   Direction: 180°S
Pressure: 30.21"   Gusts: NA
Location:  27.83°N, 97.06°W
Report Text: KRAS 262135Z AUTO 18007KT 10SM CLR 20/09 A3021 RMK AO2 T01960094
Loading
Personal Weather Stations






























Interactive Weather Map New forecast layout! Learn more

10-Day Weather Forecast

Advertisements
Track Severe Weather on mobile